sensor_id;sensor_type;location;lat;lon;timestamp;P1;durP1;ratioP1;P2;durP2;ratioP2
21432;SDS011;18592;49.708;10.900;2023-05-10T00:02:13;3.20;;;2.90;;
21432;SDS011;18592;49.708;10.900;2023-05-10T00:04:17;3.42;;;2.80;;
21432;SDS011;18592;49.708;10.900;2023-05-10T00:06:19;3.28;;;2.97;;
21432;SDS011;18592;49.708;10.900;2023-05-10T00:08:20;3.47;;;3.17;;
21432;SDS011;18592;49.708;10.900;2023-05-10T00:10:25;4.28;;;2.92;;
21432;SDS011;18592;49.708;10.900;2023-05-10T00:12:26;3.83;;;3.50;;
21432;SDS011;18592;49.708;10.900;2023-05-10T00:14:28;3.33;;;3.03;;
21432;SDS011;18592;49.708;10.900;2023-05-10T00:16:30;3.20;;;2.88;;
21432;SDS011;18592;49.708;10.900;2023-05-10T00:18:31;3.30;;;3.00;;
21432;SDS011;18592;49.708;10.900;2023-05-10T00:20:33;4.95;;;3.67;;
21432;SDS011;18592;49.708;10.900;2023-05-10T00:22:34;3.45;;;3.10;;
21432;SDS011;18592;49.708;10.900;2023-05-10T00:24:39;4.43;;;3.45;;
21432;SDS011;18592;49.708;10.900;2023-05-10T00:26:41;3.80;;;3.50;;
21432;SDS011;18592;49.708;10.900;2023-05-10T00:28:43;4.38;;;3.63;;
21432;SDS011;18592;49.708;10.900;2023-05-10T00:30:45;4.30;;;3.90;;
21432;SDS011;18592;49.708;10.900;2023-05-10T00:32:46;3.67;;;3.38;;
21432;SDS011;18592;49.708;10.900;2023-05-10T00:34:49;4.40;;;4.00;;
21432;SDS011;18592;49.708;10.900;2023-05-10T00:36:51;4.40;;;4.00;;
21432;SDS011;18592;49.708;10.900;2023-05-10T00:38:52;3.80;;;3.50;;
21432;SDS011;18592;49.708;10.900;2023-05-10T00:41:00;4.60;;;4.20;;
21432;SDS011;18592;49.708;10.900;2023-05-10T00:43:05;4.82;;;4.32;;
21432;SDS011;18592;49.708;10.900;2023-05-10T00:45:09;6.40;;;4.70;;
21432;SDS011;18592;49.708;10.900;2023-05-10T00:47:11;5.03;;;4.53;;
21432;SDS011;18592;49.708;10.900;2023-05-10T00:49:13;5.65;;;5.03;;
21432;SDS011;18592;49.708;10.900;2023-05-10T00:51:14;4.78;;;4.28;;
21432;SDS011;18592;49.708;10.900;2023-05-10T00:53:19;4.57;;;4.18;;
21432;SDS011;18592;49.708;10.900;2023-05-10T00:55:21;5.10;;;4.20;;
21432;SDS011;18592;49.708;10.900;2023-05-10T00:57:25;5.10;;;3.92;;
21432;SDS011;18592;49.708;10.900;2023-05-10T00:59:30;4.45;;;4.05;;
21432;SDS011;18592;49.708;10.900;2023-05-10T01:01:32;4.35;;;3.95;;
21432;SDS011;18592;49.708;10.900;2023-05-10T01:03:33;4.18;;;3.78;;
21432;SDS011;18592;49.708;10.900;2023-05-10T01:05:36;5.05;;;3.75;;
21432;SDS011;18592;49.708;10.900;2023-05-10T01:07:39;4.43;;;3.70;;
21432;SDS011;18592;49.708;10.900;2023-05-10T01:09:41;3.88;;;3.58;;
21432;SDS011;18592;49.708;10.900;2023-05-10T01:11:42;4.65;;;3.50;;
21432;SDS011;18592;49.708;10.900;2023-05-10T01:13:44;3.22;;;2.90;;
21432;SDS011;18592;49.708;10.900;2023-05-10T01:15:57;3.28;;;2.97;;
21432;SDS011;18592;49.708;10.900;2023-05-10T01:18:01;3.72;;;3.05;;
21432;SDS011;18592;49.708;10.900;2023-05-10T01:20:04;2.78;;;2.58;;
21432;SDS011;18592;49.708;10.900;2023-05-10T01:24:56;3.38;;;2.70;;
21432;SDS011;18592;49.708;10.900;2023-05-10T01:32:34;2.88;;;2.67;;
21432;SDS011;18592;49.708;10.900;2023-05-10T01:35:06;2.75;;;2.55;;
21432;SDS011;18592;49.708;10.900;2023-05-10T01:37:20;3.00;;;2.70;;
21432;SDS011;18592;49.708;10.900;2023-05-10T01:39:47;4.30;;;2.90;;
21432;SDS011;18592;49.708;10.900;2023-05-10T01:42:01;4.38;;;2.70;;
21432;SDS011;18592;49.708;10.900;2023-05-10T01:46:36;3.95;;;2.50;;
21432;SDS011;18592;49.708;10.900;2023-05-10T01:48:48;2.70;;;2.50;;
21432;SDS011;18592;49.708;10.900;2023-05-10T01:50:54;2.90;;;2.50;;
21432;SDS011;18592;49.708;10.900;2023-05-10T01:53:04;2.70;;;2.50;;
21432;SDS011;18592;49.708;10.900;2023-05-10T01:55:10;2.88;;;2.53;;
21432;SDS011;18592;49.708;10.900;2023-05-10T01:57:16;2.75;;;2.53;;
21432;SDS011;18592;49.708;10.900;2023-05-10T01:59:21;2.80;;;2.60;;
21432;SDS011;18592;49.708;10.900;2023-05-10T02:01:31;2.55;;;2.35;;
21432;SDS011;18592;49.708;10.900;2023-05-10T02:03:34;3.63;;;2.20;;
21432;SDS011;18592;49.708;10.900;2023-05-10T02:05:41;2.63;;;2.42;;
21432;SDS011;18592;49.708;10.900;2023-05-10T02:07:47;2.97;;;2.67;;
21432;SDS011;18592;49.708;10.900;2023-05-10T02:09:50;2.60;;;2.30;;
21432;SDS011;18592;49.708;10.900;2023-05-10T02:11:52;3.05;;;2.47;;
21432;SDS011;18592;49.708;10.900;2023-05-10T02:13:55;3.70;;;2.58;;
21432;SDS011;18592;49.708;10.900;2023-05-10T02:16:01;2.22;;;2.03;;
21432;SDS011;18592;49.708;10.900;2023-05-10T02:18:10;2.50;;;2.30;;
21432;SDS011;18592;49.708;10.900;2023-05-10T02:20:17;3.10;;;2.80;;
21432;SDS011;18592;49.708;10.900;2023-05-10T02:22:27;2.90;;;2.60;;
21432;SDS011;18592;49.708;10.900;2023-05-10T02:24:30;3.42;;;3.00;;
21432;SDS011;18592;49.708;10.900;2023-05-10T02:26:35;3.10;;;2.50;;
21432;SDS011;18592;49.708;10.900;2023-05-10T02:28:39;2.50;;;2.30;;
21432;SDS011;18592;49.708;10.900;2023-05-10T02:30:41;3.10;;;2.22;;
21432;SDS011;18592;49.708;10.900;2023-05-10T02:32:47;2.35;;;2.15;;
21432;SDS011;18592;49.708;10.900;2023-05-10T02:34:50;2.20;;;2.00;;
21432;SDS011;18592;49.708;10.900;2023-05-10T02:36:54;2.00;;;1.70;;
21432;SDS011;18592;49.708;10.900;2023-05-10T02:38:59;2.10;;;1.90;;
21432;SDS011;18592;49.708;10.900;2023-05-10T02:41:03;2.05;;;1.67;;
21432;SDS011;18592;49.708;10.900;2023-05-10T02:43:07;1.60;;;1.50;;
21432;SDS011;18592;49.708;10.900;2023-05-10T02:45:14;1.50;;;1.40;;
21432;SDS011;18592;49.708;10.900;2023-05-10T02:47:20;1.95;;;1.00;;
21432;SDS011;18592;49.708;10.900;2023-05-10T02:49:22;1.38;;;1.17;;
21432;SDS011;18592;49.708;10.900;2023-05-10T02:51:25;0.80;;;0.80;;
21432;SDS011;18592;49.708;10.900;2023-05-10T02:53:34;1.25;;;0.90;;
21432;SDS011;18592;49.708;10.900;2023-05-10T02:55:41;2.65;;;0.80;;
21432;SDS011;18592;49.708;10.900;2023-05-10T02:57:48;0.80;;;0.60;;
21432;SDS011;18592;49.708;10.900;2023-05-10T02:59:53;1.15;;;0.60;;
21432;SDS011;18592;49.708;10.900;2023-05-10T03:01:54;0.70;;;0.70;;
21432;SDS011;18592;49.708;10.900;2023-05-10T03:03:56;0.77;;;0.60;;
21432;SDS011;18592;49.708;10.900;2023-05-10T03:05:58;0.75;;;0.50;;
21432;SDS011;18592;49.708;10.900;2023-05-10T03:08:04;1.77;;;0.50;;
21432;SDS011;18592;49.708;10.900;2023-05-10T03:10:09;1.70;;;0.60;;
21432;SDS011;18592;49.708;10.900;2023-05-10T03:17:04;0.80;;;0.60;;
21432;SDS011;18592;49.708;10.900;2023-05-10T03:19:23;1.05;;;0.70;;
21432;SDS011;18592;49.708;10.900;2023-05-10T03:21:29;1.95;;;0.70;;
21432;SDS011;18592;49.708;10.900;2023-05-10T03:23:35;0.63;;;0.50;;
21432;SDS011;18592;49.708;10.900;2023-05-10T03:25:42;1.95;;;0.60;;
21432;SDS011;18592;49.708;10.900;2023-05-10T03:27:45;0.52;;;0.50;;
21432;SDS011;18592;49.708;10.900;2023-05-10T03:29:47;0.40;;;0.40;;
21432;SDS011;18592;49.708;10.900;2023-05-10T03:31:50;0.52;;;0.50;;
21432;SDS011;18592;49.708;10.900;2023-05-10T03:33:53;1.23;;;0.70;;
21432;SDS011;18592;49.708;10.900;2023-05-10T03:35:59;0.40;;;0.40;;
21432;SDS011;18592;49.708;10.900;2023-05-10T03:38:01;0.52;;;0.52;;
21432;SDS011;18592;49.708;10.900;2023-05-10T03:40:06;0.63;;;0.50;;
21432;SDS011;18592;49.708;10.900;2023-05-10T03:42:13;0.73;;;0.60;;
21432;SDS011;18592;49.708;10.900;2023-05-10T03:44:19;0.52;;;0.52;;
21432;SDS011;18592;49.708;10.900;2023-05-10T03:46:23;0.90;;;0.68;;
21432;SDS011;18592;49.708;10.900;2023-05-10T03:48:28;0.80;;;0.50;;
21432;SDS011;18592;49.708;10.900;2023-05-10T03:50:29;0.52;;;0.52;;
21432;SDS011;18592;49.708;10.900;2023-05-10T03:52:31;0.77;;;0.57;;
21432;SDS011;18592;49.708;10.900;2023-05-10T03:54:34;1.15;;;0.70;;
21432;SDS011;18592;49.708;10.900;2023-05-10T03:56:36;0.73;;;0.60;;
21432;SDS011;18592;49.708;10.900;2023-05-10T03:58:38;1.40;;;0.52;;
21432;SDS011;18592;49.708;10.900;2023-05-10T04:00:39;0.82;;;0.40;;
21432;SDS011;18592;49.708;10.900;2023-05-10T04:02:48;0.50;;;0.50;;
21432;SDS011;18592;49.708;10.900;2023-05-10T04:04:53;0.32;;;0.32;;
21432;SDS011;18592;49.708;10.900;2023-05-10T04:06:55;1.17;;;0.47;;
21432;SDS011;18592;49.708;10.900;2023-05-10T04:08:59;0.80;;;0.63;;
21432;SDS011;18592;49.708;10.900;2023-05-10T04:11:08;0.60;;;0.45;;
21432;SDS011;18592;49.708;10.900;2023-05-10T04:13:11;0.65;;;0.50;;
21432;SDS011;18592;49.708;10.900;2023-05-10T04:15:14;0.45;;;0.45;;
21432;SDS011;18592;49.708;10.900;2023-05-10T04:17:16;0.85;;;0.50;;
21432;SDS011;18592;49.708;10.900;2023-05-10T04:19:19;2.60;;;0.60;;
21432;SDS011;18592;49.708;10.900;2023-05-10T04:21:20;0.32;;;0.30;;
21432;SDS011;18592;49.708;10.900;2023-05-10T04:23:22;0.90;;;0.50;;
21432;SDS011;18592;49.708;10.900;2023-05-10T04:25:24;1.42;;;0.60;;
21432;SDS011;18592;49.708;10.900;2023-05-10T04:27:26;1.15;;;0.50;;
21432;SDS011;18592;49.708;10.900;2023-05-10T04:29:28;1.75;;;0.43;;
21432;SDS011;18592;49.708;10.900;2023-05-10T04:31:29;1.88;;;0.55;;
21432;SDS011;18592;49.708;10.900;2023-05-10T04:33:32;0.40;;;0.40;;
21432;SDS011;18592;49.708;10.900;2023-05-10T04:35:37;0.30;;;0.30;;
21432;SDS011;18592;49.708;10.900;2023-05-10T04:37:45;0.40;;;0.40;;
21432;SDS011;18592;49.708;10.900;2023-05-10T04:39:46;0.30;;;0.30;;
21432;SDS011;18592;49.708;10.900;2023-05-10T04:41:48;1.48;;;0.40;;
21432;SDS011;18592;49.708;10.900;2023-05-10T04:43:50;0.43;;;0.43;;
21432;SDS011;18592;49.708;10.900;2023-05-10T04:45:51;0.85;;;0.30;;
21432;SDS011;18592;49.708;10.900;2023-05-10T04:47:53;0.40;;;0.40;;
21432;SDS011;18592;49.708;10.900;2023-05-10T04:49:54;0.50;;;0.50;;
21432;SDS011;18592;49.708;10.900;2023-05-10T04:51:56;0.45;;;0.40;;
21432;SDS011;18592;49.708;10.900;2023-05-10T04:54:00;0.45;;;0.40;;
21432;SDS011;18592;49.708;10.900;2023-05-10T04:56:07;0.40;;;0.40;;
21432;SDS011;18592;49.708;10.900;2023-05-10T04:58:08;0.40;;;0.40;;
21432;SDS011;18592;49.708;10.900;2023-05-10T05:00:11;0.60;;;0.40;;
21432;SDS011;18592;49.708;10.900;2023-05-10T05:02:14;1.27;;;0.60;;
21432;SDS011;18592;49.708;10.900;2023-05-10T05:04:16;0.60;;;0.35;;
21432;SDS011;18592;49.708;10.900;2023-05-10T05:06:18;1.00;;;0.40;;
21432;SDS011;18592;49.708;10.900;2023-05-10T05:08:22;0.30;;;0.30;;
21432;SDS011;18592;49.708;10.900;2023-05-10T05:10:24;2.08;;;0.50;;
21432;SDS011;18592;49.708;10.900;2023-05-10T05:12:26;0.80;;;0.60;;
21432;SDS011;18592;49.708;10.900;2023-05-10T05:14:27;1.27;;;0.40;;
21432;SDS011;18592;49.708;10.900;2023-05-10T05:16:30;0.30;;;0.30;;
21432;SDS011;18592;49.708;10.900;2023-05-10T05:18:32;0.30;;;0.30;;
21432;SDS011;18592;49.708;10.900;2023-05-10T05:20:34;0.43;;;0.43;;
21432;SDS011;18592;49.708;10.900;2023-05-10T05:22:37;0.63;;;0.40;;
21432;SDS011;18592;49.708;10.900;2023-05-10T05:24:41;0.50;;;0.50;;
21432;SDS011;18592;49.708;10.900;2023-05-10T05:26:43;0.40;;;0.40;;
21432;SDS011;18592;49.708;10.900;2023-05-10T05:28:44;1.13;;;0.50;;
21432;SDS011;18592;49.708;10.900;2023-05-10T05:30:49;0.88;;;0.60;;
21432;SDS011;18592;49.708;10.900;2023-05-10T05:32:54;0.30;;;0.30;;
21432;SDS011;18592;49.708;10.900;2023-05-10T05:34:57;0.30;;;0.30;;
21432;SDS011;18592;49.708;10.900;2023-05-10T05:36:59;3.85;;;3.35;;
21432;SDS011;18592;49.708;10.900;2023-05-10T05:39:00;4.97;;;3.42;;
21432;SDS011;18592;49.708;10.900;2023-05-10T05:41:02;3.08;;;2.58;;
21432;SDS011;18592;49.708;10.900;2023-05-10T05:43:04;1.92;;;1.58;;
21432;SDS011;18592;49.708;10.900;2023-05-10T05:45:05;1.10;;;0.90;;
21432;SDS011;18592;49.708;10.900;2023-05-10T05:47:16;0.75;;;0.75;;
21432;SDS011;18592;49.708;10.900;2023-05-10T05:49:23;2.25;;;0.65;;
21432;SDS011;18592;49.708;10.900;2023-05-10T05:51:25;0.50;;;0.50;;
21432;SDS011;18592;49.708;10.900;2023-05-10T05:53:26;0.50;;;0.32;;
21432;SDS011;18592;49.708;10.900;2023-05-10T05:55:30;0.85;;;0.60;;
21432;SDS011;18592;49.708;10.900;2023-05-10T05:57:32;0.50;;;0.40;;
21432;SDS011;18592;49.708;10.900;2023-05-10T05:59:34;0.47;;;0.43;;
21432;SDS011;18592;49.708;10.900;2023-05-10T06:01:36;0.65;;;0.47;;
21432;SDS011;18592;49.708;10.900;2023-05-10T06:03:37;0.82;;;0.60;;
21432;SDS011;18592;49.708;10.900;2023-05-10T06:05:39;0.43;;;0.40;;
21432;SDS011;18592;49.708;10.900;2023-05-10T06:07:40;0.63;;;0.40;;
21432;SDS011;18592;49.708;10.900;2023-05-10T06:09:43;2.38;;;1.98;;
21432;SDS011;18592;49.708;10.900;2023-05-10T06:11:50;3.10;;;1.75;;
21432;SDS011;18592;49.708;10.900;2023-05-10T06:13:54;1.27;;;1.17;;
21432;SDS011;18592;49.708;10.900;2023-05-10T06:15:55;1.08;;;0.98;;
21432;SDS011;18592;49.708;10.900;2023-05-10T06:17:57;0.75;;;0.75;;
21432;SDS011;18592;49.708;10.900;2023-05-10T06:19:58;1.27;;;0.60;;
21432;SDS011;18592;49.708;10.900;2023-05-10T06:22:00;1.80;;;0.70;;
21432;SDS011;18592;49.708;10.900;2023-05-10T06:24:02;0.57;;;0.57;;
21432;SDS011;18592;49.708;10.900;2023-05-10T06:26:04;0.68;;;0.57;;
21432;SDS011;18592;49.708;10.900;2023-05-10T06:28:05;1.17;;;0.68;;
21432;SDS011;18592;49.708;10.900;2023-05-10T06:30:16;0.57;;;0.40;;
21432;SDS011;18592;49.708;10.900;2023-05-10T06:32:18;0.60;;;0.60;;
21432;SDS011;18592;49.708;10.900;2023-05-10T06:34:19;0.80;;;0.68;;
21432;SDS011;18592;49.708;10.900;2023-05-10T06:36:21;2.10;;;0.65;;
21432;SDS011;18592;49.708;10.900;2023-05-10T06:38:23;0.93;;;0.47;;
21432;SDS011;18592;49.708;10.900;2023-05-10T06:40:24;0.50;;;0.50;;
21432;SDS011;18592;49.708;10.900;2023-05-10T06:42:30;1.30;;;0.60;;
21432;SDS011;18592;49.708;10.900;2023-05-10T06:44:32;0.77;;;0.60;;
21432;SDS011;18592;49.708;10.900;2023-05-10T06:46:33;0.85;;;0.60;;
21432;SDS011;18592;49.708;10.900;2023-05-10T06:48:35;0.73;;;0.57;;
21432;SDS011;18592;49.708;10.900;2023-05-10T06:50:37;0.60;;;0.60;;
21432;SDS011;18592;49.708;10.900;2023-05-10T06:52:39;0.60;;;0.60;;
21432;SDS011;18592;49.708;10.900;2023-05-10T06:54:44;0.50;;;0.50;;
21432;SDS011;18592;49.708;10.900;2023-05-10T06:56:46;0.57;;;0.52;;
21432;SDS011;18592;49.708;10.900;2023-05-10T06:58:47;0.57;;;0.50;;
21432;SDS011;18592;49.708;10.900;2023-05-10T07:00:49;0.50;;;0.50;;
21432;SDS011;18592;49.708;10.900;2023-05-10T07:02:52;2.78;;;0.50;;
21432;SDS011;18592;49.708;10.900;2023-05-10T07:04:53;0.88;;;0.60;;
21432;SDS011;18592;49.708;10.900;2023-05-10T07:07:01;1.65;;;0.47;;
21432;SDS011;18592;49.708;10.900;2023-05-10T07:09:02;0.60;;;0.40;;
21432;SDS011;18592;49.708;10.900;2023-05-10T07:11:04;1.20;;;0.52;;
21432;SDS011;18592;49.708;10.900;2023-05-10T07:13:08;0.43;;;0.43;;
21432;SDS011;18592;49.708;10.900;2023-05-10T07:15:11;0.50;;;0.43;;
21432;SDS011;18592;49.708;10.900;2023-05-10T07:17:12;0.75;;;0.50;;
21432;SDS011;18592;49.708;10.900;2023-05-10T07:19:14;1.10;;;0.60;;
21432;SDS011;18592;49.708;10.900;2023-05-10T07:21:15;2.08;;;0.68;;
21432;SDS011;18592;49.708;10.900;2023-05-10T07:23:17;0.50;;;0.50;;
21432;SDS011;18592;49.708;10.900;2023-05-10T07:25:25;0.57;;;0.55;;
21432;SDS011;18592;49.708;10.900;2023-05-10T07:27:27;0.85;;;0.60;;
21432;SDS011;18592;49.708;10.900;2023-05-10T07:29:28;0.50;;;0.50;;
21432;SDS011;18592;49.708;10.900;2023-05-10T07:31:30;0.57;;;0.50;;
21432;SDS011;18592;49.708;10.900;2023-05-10T07:33:36;0.75;;;0.50;;
21432;SDS011;18592;49.708;10.900;2023-05-10T07:35:44;0.50;;;0.50;;
21432;SDS011;18592;49.708;10.900;2023-05-10T07:37:45;0.50;;;0.50;;
21432;SDS011;18592;49.708;10.900;2023-05-10T07:39:46;0.50;;;0.40;;
21432;SDS011;18592;49.708;10.900;2023-05-10T07:41:48;0.45;;;0.40;;
21432;SDS011;18592;49.708;10.900;2023-05-10T07:43:50;0.40;;;0.40;;
21432;SDS011;18592;49.708;10.900;2023-05-10T07:45:51;0.60;;;0.50;;
21432;SDS011;18592;49.708;10.900;2023-05-10T07:47:56;2.05;;;0.65;;
21432;SDS011;18592;49.708;10.900;2023-05-10T07:49:58;0.40;;;0.40;;
21432;SDS011;18592;49.708;10.900;2023-05-10T07:52:00;0.73;;;0.47;;
21432;SDS011;18592;49.708;10.900;2023-05-10T07:54:01;0.50;;;0.40;;
21432;SDS011;18592;49.708;10.900;2023-05-10T07:56:23;0.73;;;0.60;;
21432;SDS011;18592;49.708;10.900;2023-05-10T07:58:34;0.50;;;0.50;;
21432;SDS011;18592;49.708;10.900;2023-05-10T08:00:35;0.65;;;0.57;;
21432;SDS011;18592;49.708;10.900;2023-05-10T08:02:42;0.63;;;0.52;;
21432;SDS011;18592;49.708;10.900;2023-05-10T08:04:44;0.35;;;0.35;;
21432;SDS011;18592;49.708;10.900;2023-05-10T08:06:46;0.40;;;0.40;;
21432;SDS011;18592;49.708;10.900;2023-05-10T08:08:48;0.40;;;0.40;;
21432;SDS011;18592;49.708;10.900;2023-05-10T08:10:51;0.60;;;0.60;;
21432;SDS011;18592;49.708;10.900;2023-05-10T08:12:53;0.30;;;0.30;;
21432;SDS011;18592;49.708;10.900;2023-05-10T08:14:54;3.92;;;0.50;;
21432;SDS011;18592;49.708;10.900;2023-05-10T08:16:56;0.43;;;0.35;;
21432;SDS011;18592;49.708;10.900;2023-05-10T08:18:57;1.27;;;0.50;;
21432;SDS011;18592;49.708;10.900;2023-05-10T08:20:59;0.65;;;0.55;;
21432;SDS011;18592;49.708;10.900;2023-05-10T08:23:00;0.50;;;0.50;;
21432;SDS011;18592;49.708;10.900;2023-05-10T08:25:05;0.50;;;0.50;;
21432;SDS011;18592;49.708;10.900;2023-05-10T08:27:07;1.45;;;0.55;;
21432;SDS011;18592;49.708;10.900;2023-05-10T08:29:09;0.80;;;0.70;;
21432;SDS011;18592;49.708;10.900;2023-05-10T08:31:11;1.30;;;0.80;;
21432;SDS011;18592;49.708;10.900;2023-05-10T08:33:17;0.73;;;0.50;;
21432;SDS011;18592;49.708;10.900;2023-05-10T08:35:19;0.98;;;0.52;;
21432;SDS011;18592;49.708;10.900;2023-05-10T08:37:20;0.70;;;0.70;;
21432;SDS011;18592;49.708;10.900;2023-05-10T08:39:22;0.50;;;0.50;;
21432;SDS011;18592;49.708;10.900;2023-05-10T08:41:31;0.60;;;0.60;;
21432;SDS011;18592;49.708;10.900;2023-05-10T08:43:34;3.60;;;1.02;;
21432;SDS011;18592;49.708;10.900;2023-05-10T08:45:37;0.85;;;0.68;;
21432;SDS011;18592;49.708;10.900;2023-05-10T08:47:43;1.20;;;0.70;;
21432;SDS011;18592;49.708;10.900;2023-05-10T08:49:46;1.15;;;0.55;;
21432;SDS011;18592;49.708;10.900;2023-05-10T08:51:53;1.25;;;0.80;;
21432;SDS011;18592;49.708;10.900;2023-05-10T08:53:57;2.58;;;0.80;;
21432;SDS011;18592;49.708;10.900;2023-05-10T08:55:58;1.60;;;1.10;;
21432;SDS011;18592;49.708;10.900;2023-05-10T08:58:03;1.20;;;1.10;;
21432;SDS011;18592;49.708;10.900;2023-05-10T09:00:06;2.08;;;1.10;;
21432;SDS011;18592;49.708;10.900;2023-05-10T09:02:09;0.93;;;0.80;;
21432;SDS011;18592;49.708;10.900;2023-05-10T09:04:12;0.70;;;0.70;;
21432;SDS011;18592;49.708;10.900;2023-05-10T09:06:14;1.08;;;0.93;;
21432;SDS011;18592;49.708;10.900;2023-05-10T09:08:17;0.80;;;0.70;;
21432;SDS011;18592;49.708;10.900;2023-05-10T09:10:18;0.90;;;0.90;;
21432;SDS011;18592;49.708;10.900;2023-05-10T09:12:22;0.70;;;0.70;;
21432;SDS011;18592;49.708;10.900;2023-05-10T09:14:27;0.85;;;0.82;;
21432;SDS011;18592;49.708;10.900;2023-05-10T09:16:28;0.70;;;0.60;;
21432;SDS011;18592;49.708;10.900;2023-05-10T09:18:30;0.93;;;0.90;;
21432;SDS011;18592;49.708;10.900;2023-05-10T09:20:32;1.65;;;1.05;;
21432;SDS011;18592;49.708;10.900;2023-05-10T09:22:34;0.70;;;0.70;;
21432;SDS011;18592;49.708;10.900;2023-05-10T09:24:36;0.95;;;0.70;;
21432;SDS011;18592;49.708;10.900;2023-05-10T09:26:45;1.02;;;0.82;;
21432;SDS011;18592;49.708;10.900;2023-05-10T09:28:53;1.00;;;0.90;;
21432;SDS011;18592;49.708;10.900;2023-05-10T09:30:57;2.13;;;0.90;;
21432;SDS011;18592;49.708;10.900;2023-05-10T09:32:59;1.65;;;1.10;;
21432;SDS011;18592;49.708;10.900;2023-05-10T09:37:31;1.52;;;1.02;;
21432;SDS011;18592;49.708;10.900;2023-05-10T09:39:33;2.10;;;1.20;;
21432;SDS011;18592;49.708;10.900;2023-05-10T09:41:36;1.95;;;1.20;;
21432;SDS011;18592;49.708;10.900;2023-05-10T09:43:37;2.35;;;1.08;;
21432;SDS011;18592;49.708;10.900;2023-05-10T09:45:40;1.55;;;0.90;;
21432;SDS011;18592;49.708;10.900;2023-05-10T09:47:49;1.52;;;0.90;;
21432;SDS011;18592;49.708;10.900;2023-05-10T09:49:52;1.60;;;1.00;;
21432;SDS011;18592;49.708;10.900;2023-05-10T09:52:02;0.88;;;0.80;;
21432;SDS011;18592;49.708;10.900;2023-05-10T09:54:12;2.55;;;0.98;;
21432;SDS011;18592;49.708;10.900;2023-05-10T09:56:35;1.00;;;0.77;;
21432;SDS011;18592;49.708;10.900;2023-05-10T09:58:38;1.20;;;0.70;;
21432;SDS011;18592;49.708;10.900;2023-05-10T10:00:44;1.63;;;1.00;;
21432;SDS011;18592;49.708;10.900;2023-05-10T10:02:57;1.30;;;0.80;;
21432;SDS011;18592;49.708;10.900;2023-05-10T10:05:00;0.73;;;0.73;;
21432;SDS011;18592;49.708;10.900;2023-05-10T10:07:04;1.67;;;1.00;;
21432;SDS011;18592;49.708;10.900;2023-05-10T10:09:09;1.98;;;0.88;;
21432;SDS011;18592;49.708;10.900;2023-05-10T10:11:18;2.78;;;1.10;;
21432;SDS011;18592;49.708;10.900;2023-05-10T10:13:20;1.90;;;1.00;;
21432;SDS011;18592;49.708;10.900;2023-05-10T10:15:22;2.08;;;1.00;;
21432;SDS011;18592;49.708;10.900;2023-05-10T10:17:25;2.70;;;1.20;;
21432;SDS011;18592;49.708;10.900;2023-05-10T10:19:29;1.58;;;0.95;;
21432;SDS011;18592;49.708;10.900;2023-05-10T10:21:33;1.98;;;1.00;;
21432;SDS011;18592;49.708;10.900;2023-05-10T10:23:35;2.40;;;1.15;;
21432;SDS011;18592;49.708;10.900;2023-05-10T10:25:37;2.28;;;1.10;;
21432;SDS011;18592;49.708;10.900;2023-05-10T10:32:25;2.03;;;1.00;;
21432;SDS011;18592;49.708;10.900;2023-05-10T10:34:51;2.90;;;1.17;;
21432;SDS011;18592;49.708;10.900;2023-05-10T10:36:53;1.77;;;1.15;;
21432;SDS011;18592;49.708;10.900;2023-05-10T10:38:56;1.00;;;0.70;;
21432;SDS011;18592;49.708;10.900;2023-05-10T10:41:09;1.35;;;0.68;;
21432;SDS011;18592;49.708;10.900;2023-05-10T10:43:24;1.00;;;0.80;;
21432;SDS011;18592;49.708;10.900;2023-05-10T10:45:27;0.70;;;0.63;;
21432;SDS011;18592;49.708;10.900;2023-05-10T10:47:29;1.15;;;0.80;;
21432;SDS011;18592;49.708;10.900;2023-05-10T10:52:12;1.52;;;0.95;;
21432;SDS011;18592;49.708;10.900;2023-05-10T10:54:29;1.13;;;0.90;;
21432;SDS011;18592;49.708;10.900;2023-05-10T10:56:31;1.70;;;1.10;;
21432;SDS011;18592;49.708;10.900;2023-05-10T10:58:32;3.63;;;1.02;;
21432;SDS011;18592;49.708;10.900;2023-05-10T11:00:37;1.92;;;0.80;;
21432;SDS011;18592;49.708;10.900;2023-05-10T11:04:43;1.55;;;0.85;;
21432;SDS011;18592;49.708;10.900;2023-05-10T11:06:47;1.13;;;0.73;;
21432;SDS011;18592;49.708;10.900;2023-05-10T11:08:49;2.13;;;1.10;;
21432;SDS011;18592;49.708;10.900;2023-05-10T11:13:05;3.00;;;0.90;;
21432;SDS011;18592;49.708;10.900;2023-05-10T11:15:08;1.05;;;0.90;;
21432;SDS011;18592;49.708;10.900;2023-05-10T11:17:29;1.65;;;0.90;;
21432;SDS011;18592;49.708;10.900;2023-05-10T11:19:31;2.78;;;0.90;;
21432;SDS011;18592;49.708;10.900;2023-05-10T11:21:34;2.65;;;0.95;;
21432;SDS011;18592;49.708;10.900;2023-05-10T11:25:48;1.30;;;0.80;;
21432;SDS011;18592;49.708;10.900;2023-05-10T11:27:53;1.25;;;1.10;;
21432;SDS011;18592;49.708;10.900;2023-05-10T11:29:54;1.33;;;1.08;;
21432;SDS011;18592;49.708;10.900;2023-05-10T11:31:56;1.63;;;1.10;;
21432;SDS011;18592;49.708;10.900;2023-05-10T11:33:59;1.50;;;1.15;;
21432;SDS011;18592;49.708;10.900;2023-05-10T11:36:05;1.88;;;1.00;;
21432;SDS011;18592;49.708;10.900;2023-05-10T11:38:12;1.23;;;1.00;;
21432;SDS011;18592;49.708;10.900;2023-05-10T11:40:14;1.10;;;1.00;;
21432;SDS011;18592;49.708;10.900;2023-05-10T11:42:16;0.82;;;0.82;;
21432;SDS011;18592;49.708;10.900;2023-05-10T11:44:18;1.17;;;1.00;;
21432;SDS011;18592;49.708;10.900;2023-05-10T11:46:23;1.90;;;1.00;;
21432;SDS011;18592;49.708;10.900;2023-05-10T11:48:29;1.67;;;0.82;;
21432;SDS011;18592;49.708;10.900;2023-05-10T11:50:31;1.27;;;1.00;;
21432;SDS011;18592;49.708;10.900;2023-05-10T11:52:36;0.70;;;0.70;;
21432;SDS011;18592;49.708;10.900;2023-05-10T11:54:46;1.33;;;1.00;;
21432;SDS011;18592;49.708;10.900;2023-05-10T11:56:52;2.75;;;1.00;;
21432;SDS011;18592;49.708;10.900;2023-05-10T11:58:55;1.20;;;1.10;;
21432;SDS011;18592;49.708;10.900;2023-05-10T12:00:59;1.20;;;1.10;;
21432;SDS011;18592;49.708;10.900;2023-05-10T12:03:01;2.70;;;1.10;;
21432;SDS011;18592;49.708;10.900;2023-05-10T12:05:04;1.50;;;1.20;;
21432;SDS011;18592;49.708;10.900;2023-05-10T12:07:08;1.55;;;1.10;;
21432;SDS011;18592;49.708;10.900;2023-05-10T12:09:11;1.42;;;1.20;;
21432;SDS011;18592;49.708;10.900;2023-05-10T12:11:13;1.77;;;1.10;;
21432;SDS011;18592;49.708;10.900;2023-05-10T12:13:16;1.20;;;1.10;;
21432;SDS011;18592;49.708;10.900;2023-05-10T12:15:20;1.63;;;1.30;;
21432;SDS011;18592;49.708;10.900;2023-05-10T12:17:27;1.73;;;1.30;;
21432;SDS011;18592;49.708;10.900;2023-05-10T12:19:36;1.85;;;1.17;;
21432;SDS011;18592;49.708;10.900;2023-05-10T12:21:41;1.80;;;1.13;;
21432;SDS011;18592;49.708;10.900;2023-05-10T12:23:45;1.77;;;0.93;;
21432;SDS011;18592;49.708;10.900;2023-05-10T12:25:48;1.10;;;1.00;;
21432;SDS011;18592;49.708;10.900;2023-05-10T12:27:53;1.27;;;0.90;;
21432;SDS011;18592;49.708;10.900;2023-05-10T12:29:58;2.25;;;1.00;;
21432;SDS011;18592;49.708;10.900;2023-05-10T12:32:03;1.48;;;0.90;;
21432;SDS011;18592;49.708;10.900;2023-05-10T12:34:05;1.40;;;0.80;;
21432;SDS011;18592;49.708;10.900;2023-05-10T12:36:15;1.60;;;0.80;;
21432;SDS011;18592;49.708;10.900;2023-05-10T12:38:24;1.42;;;0.90;;
21432;SDS011;18592;49.708;10.900;2023-05-10T12:40:39;1.17;;;0.90;;
21432;SDS011;18592;49.708;10.900;2023-05-10T12:42:41;1.08;;;0.80;;
21432;SDS011;18592;49.708;10.900;2023-05-10T12:44:43;2.78;;;1.15;;
21432;SDS011;18592;49.708;10.900;2023-05-10T12:46:45;1.35;;;0.70;;
21432;SDS011;18592;49.708;10.900;2023-05-10T12:48:47;1.88;;;0.80;;